Etusivu
METAR-TAF:

METAR-TAF

Lentoasemat :

Meierwik

Glücksburg, Saksa

Leveyspiiri: 54-50N, Pituuspiiri: 009-30E, korkeus merenpinnasta: 27 m

Tämänhetkinen sää

Tämä raportti tehtiin 43 minuuttia sitten, kello 13.20 UTC
Tuuli 20 kn lännestä/lounaasta puuskistuen 31 kn:hen
Lämpötila 16°C
Kosteus 72%
Ilmanpaine 1000 hPa
Näkyvyys 10 km tai enemmän

METAR: ETGG 151320Z AUTO 25020G31KT 9999 // ////// 16/11 Q1000 ///

Aika: 16:03 (14:03 UTC)


TAF: puuttuu

Säähavainnot ja -ennusteet yli 4000 lentoasemalta (METAR- ja TAF-raportit).

Käytössä olevat sääasemat on merkitty karttaan keltaisilla ja punaisilla pisteillä.

Aseta hiiri pisteen päälle nähdäksesi sääaseman nimen.

Klikkaa sitten nähdäksesi säähavainnot ja -ennusteet.

Kartan vaihtaminen: klikkaa mustalla rastilla varustettuja vihreitä pisteitä, niin voit zoomata sisään; viivalla varustettua vihreää pistettä, niin voit zoomata ulos tai vihreitä nuolia, niin pääset viereisille kartoille.


METAR-TAF: